Time;durP1;ratioP1;P1;durP2;ratioP2;P2;SDS_P1;SDS_P2;PMS_P1;PMS_P2;Temp;Humidity;BMP_temperature;BMP_pressure;BME280_temperature;BME280_humidity;BME280_pressure;Samples;Min_cycle;Max_cycle;Signal;HPM_P1;HPM_P2
2023/02/12 00:00:11;;;;;;;19.13;13.03;;;;;;;3.33;80.06;102454.28;2072407;28;20665;-60
2023/02/12 00:01:13;;;;;;;20.67;13.90;;;;;;;3.60;79.79;102510.44;2076489;28;20194;-60
2023/02/12 00:02:13;;;;;;;17.95;13.60;;;;;;;3.92;80.16;102561.69;2076410;28;20185;-60
2023/02/12 00:03:13;;;;;;;19.33;13.83;;;;;;;3.88;80.17;102553.34;2071987;28;20710;-60
2023/02/12 00:04:15;;;;;;;18.37;13.40;;;;;;;3.90;79.89;102561.22;2072397;28;20639;-60
2023/02/12 00:05:15;;;;;;;17.63;12.88;;;;;;;3.91;79.73;102562.81;2071897;28;20263;-60
2023/02/12 00:06:16;;;;;;;16.93;12.50;;;;;;;3.37;79.50;102457.97;2072705;28;20201;-60
2023/02/12 00:07:17;;;;;;;22.33;13.40;;;;;;;3.89;79.59;102551.38;2072125;28;20232;-60
2023/02/12 00:08:17;;;;;;;18.37;12.93;;;;;;;3.93;80.01;102546.81;2072445;28;20216;-60
2023/02/12 00:09:17;;;;;;;16.17;12.93;;;;;;;3.76;79.49;102522.34;2072317;28;20277;-60
2023/02/12 00:10:18;;;;;;;17.53;13.57;;;;;;;3.89;79.52;102537.66;2072524;28;20179;-60
2023/02/12 00:11:21;;;;;;;16.73;12.83;;;;;;;3.89;78.88;102534.91;2072181;28;20200;-61
2023/02/12 00:12:22;;;;;;;19.75;12.88;;;;;;;3.69;78.38;102514.69;2072534;28;20173;-60
2023/02/12 00:13:22;;;;;;;18.30;13.17;;;;;;;3.99;77.54;102540.78;2071731;28;20214;-59
2023/02/12 00:14:23;;;;;;;16.70;12.30;;;;;;;3.89;77.31;102511.03;2072393;28;20181;-60
2023/02/12 00:15:23;;;;;;;18.90;13.20;;;;;;;4.06;76.65;102557.47;2071837;28;20168;-60
2023/02/12 00:16:27;;;;;;;17.97;12.60;;;;;;;4.06;76.50;102562.16;2065118;28;20205;-60
2023/02/12 00:17:27;;;;;;;17.90;13.00;;;;;;;4.01;76.67;102543.19;2070849;28;20186;-60
2023/02/12 00:18:28;;;;;;;18.47;13.23;;;;;;;4.09;76.86;102551.28;2072465;28;20188;-60
2023/02/12 00:19:29;;;;;;;17.60;12.40;;;;;;;4.03;76.66;102549.94;2072351;28;20194;-60
2023/02/12 00:20:29;;;;;;;18.52;13.60;;;;;;;4.05;77.26;102555.06;2072410;28;20190;-60
2023/02/12 00:21:30;;;;;;;18.57;13.27;;;;;;;4.05;77.28;102555.84;2072113;28;20260;-60
2023/02/12 00:22:30;;;;;;;19.73;13.80;;;;;;;4.08;77.51;102552.44;2072302;28;20245;-60
2023/02/12 00:23:31;;;;;;;18.83;13.33;;;;;;;4.09;77.08;102558.72;2072267;28;20180;-60
2023/02/12 00:24:31;;;;;;;19.10;13.33;;;;;;;4.05;76.73;102547.63;2072548;28;20563;-60
2023/02/12 00:25:33;;;;;;;19.67;13.73;;;;;;;4.03;76.92;102543.63;2072585;28;20191;-60
2023/02/12 00:26:35;;;;;;;16.20;12.43;;;;;;;4.08;77.09;102555.19;2074182;28;20285;-60
2023/02/12 00:27:35;;;;;;;16.67;12.45;;;;;;;3.78;76.17;102520.88;2073673;28;20213;-60
2023/02/12 00:28:36;;;;;;;18.00;12.77;;;;;;;4.10;76.18;102546.63;2074060;28;20220;-60
2023/02/12 00:29:36;;;;;;;17.77;12.60;;;;;;;3.15;76.19;102400.03;2073885;28;20247;-60
2023/02/12 00:30:37;;;;;;;18.37;12.27;;;;;;;4.03;76.23;102549.13;2073009;28;20182;-60
2023/02/12 00:31:37;;;;;;;17.60;12.50;;;;;;;4.01;76.64;102540.44;2074060;28;20245;-60
2023/02/12 00:32:38;;;;;;;19.33;12.80;;;;;;;3.98;76.96;102533.69;2075692;28;20189;-60
2023/02/12 00:33:38;;;;;;;15.57;12.20;;;;;;;3.85;76.95;102520.31;2073959;28;20651;-60
2023/02/12 00:34:39;;;;;;;16.47;12.40;;;;;;;4.05;76.45;102527.66;2074094;28;20194;-60
2023/02/12 00:35:40;;;;;;;16.90;13.13;;;;;;;4.06;76.50;102531.97;2073192;28;20188;-60
2023/02/12 00:36:40;;;;;;;19.00;13.07;;;;;;;4.12;76.50;102516.88;2070394;28;20923;-60
2023/02/12 00:37:41;;;;;;;20.13;13.97;;;;;;;4.15;75.98;102522.47;2068085;28;20182;-61
2023/02/12 00:38:41;;;;;;;19.83;13.90;;;;;;;4.22;74.43;102521.91;2074004;28;20224;-60
2023/02/12 00:39:42;;;;;;;18.77;13.97;;;;;;;4.19;73.35;102508.88;2073659;28;20671;-60
2023/02/12 00:40:42;;;;;;;18.50;13.77;;;;;;;3.79;73.87;102440.19;2074191;28;20261;-60
2023/02/12 00:41:43;;;;;;;18.53;12.70;;;;;;;4.24;73.26;102522.38;2081246;28;20191;-60
2023/02/12 00:42:43;;;;;;;18.03;13.47;;;;;;;4.31;73.20;102506.13;2075624;28;20184;-60
2023/02/12 00:43:44;;;;;;;18.57;13.17;;;;;;;4.35;72.26;102507.03;2073821;28;20183;-60
2023/02/12 00:44:44;;;;;;;16.20;12.27;;;;;;;4.08;72.27;102467.38;2073988;28;20205;-60
2023/02/12 00:45:45;;;;;;;17.03;12.67;;;;;;;4.40;72.06;102515.03;2073213;28;20178;-60
2023/02/12 00:46:46;;;;;;;19.25;13.38;;;;;;;4.35;72.03;102504.28;2074016;28;20177;-60
2023/02/12 00:47:46;;;;;;;18.57;13.17;;;;;;;4.27;72.34;102514.22;2073594;28;20190;-61
2023/02/12 00:48:47;;;;;;;18.67;12.93;;;;;;;4.21;72.55;102510.13;2074129;28;20648;-60
2023/02/12 00:49:47;;;;;;;18.77;12.43;;;;;;;4.22;72.93;102516.44;2073718;28;20567;-60
2023/02/12 00:50:49;;;;;;;17.47;12.53;;;;;;;4.18;71.76;102545.69;2074035;28;20190;-60
2023/02/12 00:51:49;;;;;;;19.00;12.23;;;;;;;4.22;72.28;102503.53;2073574;28;20264;-60
2023/02/12 00:52:49;;;;;;;17.23;12.67;;;;;;;4.09;71.94;102495.59;2073378;28;20190;-60
2023/02/12 00:53:50;;;;;;;19.83;13.70;;;;;;;4.20;72.55;102515.97;2073370;28;20205;-61
2023/02/12 00:54:50;;;;;;;16.37;12.13;;;;;;;4.25;72.41;102507.53;2073788;28;20262;-60
2023/02/12 00:55:51;;;;;;;19.37;12.17;;;;;;;4.21;71.92;102498.38;2073127;28;20623;-60
2023/02/12 00:56:51;;;;;;;18.43;13.00;;;;;;;4.22;71.90;102513.69;2073742;28;20229;-60
2023/02/12 00:57:52;;;;;;;17.77;12.47;;;;;;;4.24;72.33;102516.88;2073787;28;20190;-60
2023/02/12 00:58:52;;;;;;;20.57;13.10;;;;;;;4.26;72.33;102512.63;2073768;28;20228;-60
2023/02/12 00:59:52;;;;;;;18.07;13.33;;;;;;;3.72;72.29;102428.19;2073956;28;20190;-61
2023/02/12 01:00:54;;;;;;;18.47;12.70;;;;;;;3.73;72.90;102430.59;2073710;28;20236;-60
2023/02/12 01:01:55;;;;;;;18.77;13.80;;;;;;;4.21;73.36;102509.34;2073802;28;20204;-60
2023/02/12 01:02:55;;;;;;;18.00;13.73;;;;;;;4.29;73.14;102519.38;2073418;28;20261;-61
2023/02/12 01:03:56;;;;;;;20.23;13.83;;;;;;;4.31;73.06;102519.84;2073576;28;20555;-60
2023/02/12 01:04:57;;;;;;;20.83;13.13;;;;;;;4.29;72.12;102516.66;2073796;28;20179;-60
2023/02/12 01:05:57;;;;;;;17.90;13.30;;;;;;;4.31;72.32;102517.91;2073125;28;20186;-60
2023/02/12 01:06:58;;;;;;;19.30;14.07;;;;;;;4.40;71.95;102521.31;2073840;28;20188;-60
2023/02/12 01:07:59;;;;;;;19.63;13.40;;;;;;;3.86;70.97;102434.91;2073523;28;20215;-60
2023/02/12 01:09:00;;;;;;;19.87;13.83;;;;;;;4.49;70.53;102515.72;2073791;28;20200;-60
2023/02/12 01:10:01;;;;;;;17.42;12.70;;;;;;;4.40;70.03;102521.31;2070006;28;20574;-60
2023/02/12 01:11:03;;;;;;;18.07;12.90;;;;;;;3.76;70.42;102424.44;2067945;28;20205;-60
2023/02/12 01:12:04;;;;;;;19.88;13.85;;;;;;;4.48;70.31;102520.41;2073522;28;20317;-60
2023/02/12 01:13:05;;;;;;;20.87;13.73;;;;;;;4.49;70.36;102521.19;2073272;28;20233;-60
2023/02/12 01:14:06;;;;;;;18.10;13.37;;;;;;;4.35;70.65;102512.50;2073791;28;20710;-61
2023/02/12 01:15:09;;;;;;;17.17;12.27;;;;;;;4.46;70.33;102519.94;2073653;28;20209;-60
2023/02/12 01:16:19;;;;;;;19.45;12.85;;;;;;;3.85;70.01;102414.13;2073498;28;20177;-60
2023/02/12 01:17:20;;;;;;;20.35;13.20;;;;;;;4.52;70.06;102521.31;2073583;28;20201;-60
2023/02/12 01:18:20;;;;;;;20.17;13.83;;;;;;;4.49;70.51;102526.69;2073565;28;20182;-60
2023/02/12 01:19:20;;;;;;;19.57;13.63;;;;;;;4.46;70.30;102514.44;2073392;28;20533;-60
2023/02/12 01:20:23;;;;;;;17.63;12.90;;;;;;;4.45;70.21;102523.84;2073737;28;20175;-60
2023/02/12 01:21:27;;;;;;;17.65;13.38;;;;;;;4.39;71.09;102517.00;2073498;28;20167;-60
2023/02/12 01:22:27;;;;;;;17.38;12.52;;;;;;;4.41;70.78;102520.19;2067490;28;20206;-60
2023/02/12 01:23:28;;;;;;;18.30;12.63;;;;;;;4.41;71.04;102522.91;2073130;28;20177;-60
2023/02/12 01:24:28;;;;;;;19.20;12.97;;;;;;;4.39;70.94;102514.25;2073857;28;20187;-60
2023/02/12 01:25:28;;;;;;;19.60;13.00;;;;;;;4.42;71.66;102516.28;2072766;28;20190;-60
2023/02/12 01:26:31;;;;;;;17.93;13.10;;;;;;;4.34;71.82;102514.47;2073667;28;20221;-60
2023/02/12 01:27:32;;;;;;;20.58;13.45;;;;;;;4.35;72.36;102504.28;2073210;28;20684;-60
2023/02/12 01:28:33;;;;;;;17.40;12.63;;;;;;;4.38;72.00;102509.91;2073712;28;20638;-60
2023/02/12 01:29:34;;;;;;;21.10;14.00;;;;;;;4.43;71.82;102495.13;2073503;28;20264;-60
2023/02/12 01:30:35;;;;;;;18.77;13.25;;;;;;;4.40;70.88;102488.38;2073619;28;20619;-60
2023/02/12 01:31:37;;;;;;;19.27;13.33;;;;;;;4.33;71.52;102501.91;2073454;28;20186;-60
2023/02/12 01:32:38;;;;;;;19.38;12.80;;;;;;;4.33;71.80;102504.66;2073083;28;20180;-60
2023/02/12 01:33:39;;;;;;;19.07;13.77;;;;;;;4.31;71.08;102508.88;2073505;28;20200;-60
2023/02/12 01:34:39;;;;;;;18.23;13.20;;;;;;;4.24;71.18;102509.44;2073558;28;20238;-60
2023/02/12 01:35:40;;;;;;;20.33;13.33;;;;;;;4.26;71.71;102507.16;2072917;28;20250;-60
2023/02/12 01:36:40;;;;;;;19.13;14.07;;;;;;;4.30;71.19;102507.25;2073283;28;20223;-60
2023/02/12 01:37:41;;;;;;;20.07;14.47;;;;;;;4.33;71.44;102509.31;2072915;28;20191;-60
2023/02/12 01:38:41;;;;;;;19.67;13.70;;;;;;;4.32;71.19;102518.72;2073538;28;20650;-60
2023/02/12 01:39:42;;;;;;;20.57;14.13;;;;;;;4.17;71.27;102500.19;2071142;28;20185;-60
2023/02/12 01:40:42;;;;;;;19.77;13.83;;;;;;;4.24;70.45;102506.72;2066262;28;20202;-60
2023/02/12 01:41:43;;;;;;;22.80;14.37;;;;;;;4.35;70.41;102510.56;2073723;28;20525;-60
2023/02/12 01:42:44;;;;;;;17.80;13.20;;;;;;;4.46;70.06;102527.41;2073189;28;20199;-60
2023/02/12 01:43:45;;;;;;;18.37;13.60;;;;;;;4.28;69.84;102498.56;2072703;28;20189;-60
2023/02/12 01:45:13;;;;;;;19.92;13.35;;;;;;;4.47;69.93;102523.50;2072878;28;20195;-60
2023/02/12 01:46:14;;;;;;;18.83;13.35;;;;;;;4.51;69.76;102525.19;2065660;28;20639;-60
2023/02/12 01:47:17;;;;;;;18.30;11.57;;;;;;;3.50;69.91;102376.56;2065278;28;20545;-60
2023/02/12 01:48:19;;;;;;;18.83;13.52;;;;;;;4.39;69.51;102518.91;2071638;28;20193;-60
2023/02/12 01:49:25;;;;;;;18.05;13.57;;;;;;;4.37;69.74;102519.25;2073143;28;20553;-60
2023/02/12 01:50:26;;;;;;;19.13;13.73;;;;;;;4.38;70.18;102507.16;2073456;28;20200;-60
2023/02/12 01:51:27;;;;;;;18.70;13.10;;;;;;;4.41;70.26;102508.41;2073244;28;20226;-60
2023/02/12 01:52:32;;;;;;;18.30;13.57;;;;;;;4.35;70.63;102513.31;2073474;28;20190;-60
2023/02/12 01:53:36;;;;;;;18.90;13.70;;;;;;;4.37;70.81;102497.31;2073019;28;20686;-60
2023/02/12 01:54:37;;;;;;;19.35;13.90;;;;;;;4.40;71.24;102502.13;2073344;28;20726;-60
2023/02/12 01:55:39;;;;;;;21.27;14.27;;;;;;;4.35;71.23;102513.31;2072601;28;20215;-60
2023/02/12 01:56:41;;;;;;;19.83;13.93;;;;;;;4.35;70.25;102523.50;2073289;28;20654;-60
2023/02/12 01:57:44;;;;;;;23.17;14.18;;;;;;;4.29;70.54;102500.97;2073422;28;20172;-60
2023/02/12 01:58:47;;;;;;;20.30;14.00;;;;;;;4.30;70.62;102499.03;2073405;28;20197;-60
2023/02/12 01:59:53;;;;;;;21.20;13.90;;;;;;;4.31;70.22;102497.91;2073357;28;20195;-60
2023/02/12 02:00:54;;;;;;;21.88;13.88;;;;;;;4.33;69.84;102485.44;2073325;28;20681;-60
2023/02/12 02:01:54;;;;;;;20.23;14.23;;;;;;;4.33;70.44;102479.94;2073058;28;20264;-60
2023/02/12 02:02:59;;;;;;;18.40;13.87;;;;;;;4.33;70.08;102481.88;2068978;28;20192;-60
2023/02/12 02:04:14;;;;;;;22.50;14.45;;;;;;;4.38;69.75;102487.94;2068327;28;20195;-60
2023/02/12 02:05:26;;;;;;;20.98;14.25;;;;;;;4.21;68.69;102462.69;2068401;28;20660;-60
2023/02/12 02:06:33;;;;;;;17.95;12.68;;;;;;;4.36;68.88;102509.44;2069917;28;20221;-60
2023/02/12 02:07:33;;;;;;;18.55;13.90;;;;;;;4.37;68.34;102494.56;2068861;28;20313;-60
2023/02/12 02:08:35;;;;;;;22.23;14.13;;;;;;;4.39;68.10;102489.53;2065090;28;20195;-60
2023/02/12 02:09:36;;;;;;;20.92;14.38;;;;;;;4.42;68.55;102499.03;2064918;28;20672;-60
2023/02/12 02:10:37;;;;;;;18.15;13.60;;;;;;;4.44;67.85;102492.03;2066225;28;20630;-61
2023/02/12 02:14:32;;;;;;;19.67;14.27;;;;;;;3.79;67.48;102390.81;2073485;28;20660;-59
2023/02/12 02:15:35;;;;;;;20.58;14.80;;;;;;;3.82;67.83;102383.84;2072373;28;20206;-60
2023/02/12 02:16:37;;;;;;;21.80;14.70;;;;;;;4.48;67.38;102505.88;2070072;28;20286;-60
2023/02/12 02:17:53;;;;;;;21.85;15.48;;;;;;;4.56;67.41;102504.97;2067150;28;20186;-60
2023/02/12 02:19:08;;;;;;;22.90;15.25;;;;;;;4.58;67.18;102491.66;2070109;28;20186;-60
2023/02/12 02:20:41;;;;;;;23.20;16.48;;;;;;;3.76;67.18;102380.56;2068923;28;20560;-60
2023/02/12 02:22:00;;;;;;;22.08;16.27;;;;;;;4.56;67.22;102508.50;2068008;28;20183;-60
2023/02/12 02:23:22;;;;;;;24.45;15.73;;;;;;;4.63;67.08;102508.72;2064851;28;20181;-61
2023/02/12 02:24:46;;;;;;;21.13;16.25;;;;;;;4.32;67.17;102481.06;2065997;28;20175;-60
2023/02/12 02:25:55;;;;;;;23.95;15.98;;;;;;;4.54;66.96;102512.72;2072564;28;20194;-60
2023/02/12 02:27:08;;;;;;;21.33;16.02;;;;;;;4.58;67.33;102513.63;2073115;28;20199;-60
2023/02/12 02:28:45;;;;;;;20.95;16.15;;;;;;;4.61;67.08;102518.44;2072302;28;20660;-60
2023/02/12 02:30:32;;;;;;;26.08;15.95;;;;;;;4.68;65.79;102519.47;2072941;28;20183;-60
2023/02/12 02:31:42;;;;;;;20.88;15.65;;;;;;;3.47;65.69;102339.66;2031298;28;20628;-60
2023/02/12 02:32:54;;;;;;;21.77;15.70;;;;;;;4.68;65.75;102529.63;2069392;28;20199;-60
2023/02/12 02:34:12;;;;;;;22.67;15.57;;;;;;;4.47;65.61;102491.34;2068812;28;20195;-60
2023/02/12 02:35:31;;;;;;;21.42;15.75;;;;;;;4.71;65.28;102529.75;2072507;28;20212;-60
2023/02/12 02:36:40;;;;;;;21.65;16.25;;;;;;;4.71;65.87;102528.94;2073067;28;20235;-60
2023/02/12 02:38:12;;;;;;;21.15;15.25;;;;;;;4.69;66.05;102533.97;2072866;28;20199;-60
2023/02/12 02:39:16;;;;;;;22.33;14.65;;;;;;;4.70;66.17;102539.13;2079986;28;20251;-60
2023/02/12 02:40:21;;;;;;;20.17;15.20;;;;;;;4.70;66.32;102536.38;2075066;28;20699;-60
2023/02/12 02:41:32;;;;;;;26.20;16.65;;;;;;;4.73;66.81;102541.16;2065025;28;20176;-61
2023/02/12 02:43:02;;;;;;;20.83;15.85;;;;;;;4.79;67.27;102531.56;2064935;28;20255;-61
2023/02/12 02:44:26;;;;;;;21.75;15.70;;;;;;;4.19;66.36;102452.06;2066822;28;20171;-60
2023/02/12 02:45:35;;;;;;;22.50;15.90;;;;;;;4.72;66.90;102534.06;2068243;28;20203;-60
2023/02/12 02:46:57;;;;;;;21.50;15.95;;;;;;;4.72;67.39;102541.53;2069097;28;20225;-60
2023/02/12 02:48:05;;;;;;;20.92;15.90;;;;;;;4.73;67.57;102541.16;2067096;28;20211;-60
2023/02/12 02:49:10;;;;;;;22.50;16.33;;;;;;;4.69;67.75;102533.97;2069708;28;20218;-60
2023/02/12 02:50:16;;;;;;;21.92;16.50;;;;;;;4.66;66.98;102540.97;2072977;28;20737;-60
2023/02/12 02:51:28;;;;;;;22.42;16.60;;;;;;;4.67;67.08;102528.81;2072831;28;20738;-60
2023/02/12 02:52:54;;;;;;;19.73;14.52;;;;;;;4.72;66.32;102536.03;2073014;28;20254;-60
2023/02/12 02:54:06;;;;;;;21.48;15.52;;;;;;;4.27;66.35;102467.56;2072983;28;20583;-61
2023/02/12 02:55:11;;;;;;;20.60;15.38;;;;;;;4.73;66.18;102530.19;2072769;28;20742;-61
2023/02/12 02:56:16;;;;;;;22.67;15.85;;;;;;;4.73;65.84;102538.41;2072965;28;20206;-60
2023/02/12 02:57:23;;;;;;;20.20;16.17;;;;;;;4.78;65.79;102532.69;2072502;28;20246;-60
2023/02/12 02:58:34;;;;;;;23.60;15.70;;;;;;;4.78;65.32;102545.63;2072828;28;20175;-60
2023/02/12 02:59:41;;;;;;;21.15;15.73;;;;;;;4.37;65.74;102477.31;2072882;28;20199;-61
2023/02/12 03:00:47;;;;;;;24.08;16.02;;;;;;;4.74;65.62;102539.22;2073098;28;20657;-61
2023/02/12 03:02:00;;;;;;;22.83;15.65;;;;;;;4.78;65.65;102549.16;2066449;28;20197;-61
2023/02/12 03:03:15;;;;;;;20.77;15.07;;;;;;;4.83;65.60;102535.19;2071420;28;20191;-61
2023/02/12 03:04:28;;;;;;;21.75;15.60;;;;;;;4.44;66.14;102491.22;2072986;28;20277;-61
2023/02/12 03:05:38;;;;;;;21.08;15.80;;;;;;;4.82;65.94;102530.06;2064154;28;20180;-60
2023/02/12 03:06:51;;;;;;;24.92;16.63;;;;;;;3.83;66.53;102372.53;2064995;28;20181;-60
2023/02/12 03:07:58;;;;;;;23.98;16.35;;;;;;;4.83;66.80;102559.91;2064731;28;20284;-61
2023/02/12 03:09:04;;;;;;;21.13;16.58;;;;;;;3.98;66.66;102398.47;2064807;28;20177;-60
2023/02/12 03:10:12;;;;;;;23.30;16.55;;;;;;;4.88;67.27;102572.63;2064917;28;20628;-61
2023/02/12 03:11:29;;;;;;;25.92;16.70;;;;;;;4.87;67.48;102551.81;2064777;28;20172;-60
2023/02/12 03:12:43;;;;;;;19.67;15.18;;;;;;;4.82;67.39;102538.31;2064881;28;20558;-60
2023/02/12 03:14:12;;;;;;;21.83;16.63;;;;;;;4.52;68.04;102491.09;2065056;28;20198;-60
2023/02/12 03:15:59;;;;;;;22.02;16.08;;;;;;;4.85;67.22;102541.16;2071709;28;20210;-60
2023/02/12 03:17:27;;;;;;;21.63;17.23;;;;;;;4.74;68.21;102540.03;2064776;28;20211;-61
2023/02/12 03:18:35;;;;;;;22.60;16.27;;;;;;;4.80;67.95;102535.09;2066601;28;20182;-61
2023/02/12 03:19:40;;;;;;;25.23;16.85;;;;;;;4.85;68.31;102523.88;2072494;28;20166;-61
2023/02/12 03:20:47;;;;;;;23.58;17.33;;;;;;;4.87;67.70;102540.81;2072581;28;20185;-60
2023/02/12 03:22:17;;;;;;;26.58;17.00;;;;;;;4.90;66.28;102543.66;2072548;28;20185;-61
2023/02/12 03:23:24;;;;;;;22.27;16.60;;;;;;;4.79;65.42;102528.00;2072313;28;20281;-60
2023/02/12 03:24:35;;;;;;;22.02;16.52;;;;;;;4.81;65.74;102525.69;2072694;28;20675;-60
2023/02/12 03:25:43;;;;;;;23.75;16.58;;;;;;;4.04;65.22;102395.13;2071989;28;20667;-61
2023/02/12 03:26:47;;;;;;;21.80;15.63;;;;;;;4.94;64.55;102547.31;2072596;28;20384;-60
2023/02/12 03:28:28;;;;;;;24.17;15.65;;;;;;;5.06;65.32;102543.72;2072362;28;20567;-61
2023/02/12 03:29:28;;;;;;;23.95;16.05;;;;;;;5.09;63.94;102543.84;2072246;28;20246;-61
2023/02/12 03:30:43;;;;;;;21.73;14.67;;;;;;;4.49;63.79;102450.63;2072139;28;20204;-61
2023/02/12 03:32:01;;;;;;;21.08;14.68;;;;;;;5.14;63.74;102546.31;2072607;28;20277;-60
2023/02/12 03:33:29;;;;;;;19.88;14.32;;;;;;;5.27;62.67;102547.88;2064348;28;20167;-61
2023/02/12 03:34:36;;;;;;;20.20;14.63;;;;;;;5.29;62.64;102542.81;2066101;28;20639;-60
2023/02/12 03:35:48;;;;;;;21.85;14.95;;;;;;;5.36;61.64;102539.47;2071905;28;20172;-61
2023/02/12 03:36:55;;;;;;;20.30;14.18;;;;;;;5.39;61.28;102545.06;2072619;28;20586;-61
2023/02/12 03:38:10;;;;;;;21.58;15.23;;;;;;;5.42;61.20;102557.31;2072611;28;20171;-60
2023/02/12 03:39:30;;;;;;;22.23;15.48;;;;;;;4.64;60.54;102436.16;2072531;28;20170;-60
2023/02/12 03:40:36;;;;;;;23.52;15.98;;;;;;;5.42;59.72;102547.13;2072592;28;21078;-60
2023/02/12 03:41:43;;;;;;;21.70;15.73;;;;;;;5.41;60.05;102539.22;2072383;28;20733;-60
2023/02/12 03:42:59;;;;;;;21.23;15.70;;;;;;;5.41;60.20;102548.28;2072278;28;20646;-60
2023/02/12 03:44:02;;;;;;;24.15;16.52;;;;;;;5.44;60.16;102546.78;2072526;28;20245;-61
2023/02/12 03:45:21;;;;;;;25.05;16.83;;;;;;;5.46;60.71;102538.97;2069275;28;20227;-61
2023/02/12 03:46:25;;;;;;;25.23;17.40;;;;;;;5.43;60.65;102545.97;2068880;28;20282;-60
2023/02/12 03:47:37;;;;;;;26.20;17.20;;;;;;;5.50;59.96;102542.63;2072348;28;20253;-60
2023/02/12 03:49:08;;;;;;;23.38;17.20;;;;;;;5.45;60.11;102537.38;2072396;28;20224;-61
2023/02/12 03:50:09;;;;;;;24.50;17.10;;;;;;;5.40;60.84;102541.19;2072247;28;20206;-60
2023/02/12 03:51:12;;;;;;;22.50;16.03;;;;;;;5.38;60.64;102546.22;2072428;28;20198;-61
2023/02/12 03:52:13;;;;;;;23.98;17.25;;;;;;;5.41;61.18;102555.72;2072525;28;20503;-60
2023/02/12 03:53:13;;;;;;;23.30;17.10;;;;;;;5.49;61.16;102543.78;2072089;28;20273;-61
2023/02/12 03:54:18;;;;;;;25.40;16.93;;;;;;;5.13;60.43;102470.50;2072513;28;20663;-61
2023/02/12 03:55:18;;;;;;;22.85;16.55;;;;;;;5.50;60.03;102545.38;2071703;28;20531;-60
2023/02/12 03:56:24;;;;;;;23.30;16.67;;;;;;;5.42;59.68;102541.63;2072414;28;20243;-61
2023/02/12 03:57:30;;;;;;;24.13;17.48;;;;;;;5.43;60.19;102543.22;2072191;28;20285;-61
2023/02/12 03:58:34;;;;;;;23.33;16.95;;;;;;;5.45;60.46;102543.69;2072578;28;20181;-60
2023/02/12 03:59:38;;;;;;;21.15;16.23;;;;;;;5.39;60.34;102534.06;2072224;28;20201;-61
2023/02/12 04:00:38;;;;;;;24.65;17.20;;;;;;;5.49;59.37;102541.03;2072489;28;20184;-60
2023/02/12 04:01:39;;;;;;;24.23;17.20;;;;;;;5.39;58.85;102545.06;2072288;28;20187;-60
2023/02/12 04:02:41;;;;;;;25.73;17.60;;;;;;;4.65;59.67;102425.97;2072143;28;20185;-60
2023/02/12 04:03:42;;;;;;;24.23;17.50;;;;;;;5.43;59.61;102548.72;2072257;28;20184;-60
2023/02/12 04:04:45;;;;;;;24.30;17.30;;;;;;;5.46;59.39;102555.47;2072426;28;20192;-60
2023/02/12 04:05:46;;;;;;;24.60;17.15;;;;;;;5.32;59.14;102524.81;2071809;28;20709;-60
2023/02/12 04:06:48;;;;;;;23.43;17.17;;;;;;;5.44;59.49;102550.31;2072501;28;20640;-60
2023/02/12 04:07:51;;;;;;;24.30;16.80;;;;;;;5.47;59.70;102552.38;2072254;28;20610;-61
2023/02/12 04:08:53;;;;;;;22.27;16.67;;;;;;;5.50;59.77;102548.13;2072254;28;20559;-61
2023/02/12 04:09:53;;;;;;;23.88;16.92;;;;;;;5.50;59.52;102546.19;2072513;28;20239;-61
2023/02/12 04:11:12;;;;;;;23.77;17.40;;;;;;;5.56;60.01;102546.69;2064533;28;20184;-60
2023/02/12 04:12:57;;;;;;;25.88;18.35;;;;;;;5.55;59.43;102551.41;2064481;28;20168;-61
2023/02/12 04:14:21;;;;;;;24.48;17.25;;;;;;;5.55;60.14;102547.88;2073684;28;20721;-61
2023/02/12 04:15:42;;;;;;;24.08;16.60;;;;;;;5.55;59.52;102550.63;2070644;28;20204;-61
2023/02/12 04:17:05;;;;;;;24.05;16.98;;;;;;;5.55;60.48;102543.16;2072429;28;20205;-61
2023/02/12 04:18:08;;;;;;;23.52;17.75;;;;;;;5.53;59.80;102545.47;2065400;28;20276;-60
2023/02/12 04:19:14;;;;;;;23.77;17.33;;;;;;;5.57;60.13;102559.28;2072248;28;20179;-61
2023/02/12 04:20:26;;;;;;;23.23;17.38;;;;;;;5.55;59.86;102550.63;2072441;28;20174;-61
2023/02/12 04:22:04;;;;;;;25.10;17.17;;;;;;;5.51;60.41;102550.53;2072194;28;20175;-61
2023/02/12 04:23:26;;;;;;;23.85;16.85;;;;;;;5.55;59.81;102547.88;2071942;28;20583;-61
2023/02/12 04:25:06;;;;;;;23.42;17.35;;;;;;;5.48;60.19;102551.22;2066262;28;20237;-60
2023/02/12 04:26:33;;;;;;;26.63;17.55;;;;;;;5.50;60.37;102540.69;2072029;28;20771;-60
2023/02/12 04:27:33;;;;;;;23.20;17.38;;;;;;;5.44;61.08;102552.28;2075390;28;20195;-60
2023/02/12 04:29:03;;;;;;;23.40;17.10;;;;;;;5.36;60.83;102531.22;2074864;28;20176;-61
2023/02/12 04:30:19;;;;;;;25.15;17.35;;;;;;;5.43;61.24;102545.19;2069910;28;20622;-61
2023/02/12 04:31:32;;;;;;;24.92;17.52;;;;;;;5.38;61.16;102550.94;2070169;28;20203;-61
2023/02/12 04:32:43;;;;;;;24.60;17.52;;;;;;;5.38;61.91;102550.94;2072208;28;20249;-61
2023/02/12 04:34:04;;;;;;;23.65;17.25;;;;;;;5.36;62.67;102544.97;2072214;28;20254;-61
2023/02/12 04:35:46;;;;;;;23.38;17.20;;;;;;;5.33;62.77;102551.97;2064510;28;20192;-61
2023/02/12 04:36:58;;;;;;;23.35;17.90;;;;;;;5.36;63.32;102555.97;2064290;28;20188;-61
2023/02/12 04:38:24;;;;;;;23.45;17.92;;;;;;;5.39;62.93;102560.78;2068569;28;20346;-60
2023/02/12 04:39:30;;;;;;;24.13;18.10;;;;;;;5.31;63.65;102529.53;2071515;28;20208;-61
2023/02/12 04:40:31;;;;;;;25.10;17.80;;;;;;;4.98;63.48;102470.50;2072489;28;20197;-60
2023/02/12 04:41:31;;;;;;;26.37;18.03;;;;;;;5.49;62.95;102546.53;2067126;28;20271;-61
2023/02/12 04:42:44;;;;;;;25.40;17.47;;;;;;;5.51;62.76;102546.97;2068199;28;20662;-61
2023/02/12 04:43:44;;;;;;;23.58;17.98;;;;;;;5.05;63.06;102485.22;2072273;28;20191;-60
2023/02/12 04:44:45;;;;;;;23.43;17.43;;;;;;;5.49;63.35;102547.31;2072292;28;20189;-61
2023/02/12 04:45:45;;;;;;;29.77;18.80;;;;;;;5.53;63.10;102545.47;2071559;28;20177;-60
2023/02/12 04:46:46;;;;;;;26.37;19.07;;;;;;;5.55;63.09;102545.13;2072481;28;20221;-60
2023/02/12 04:47:46;;;;;;;25.30;18.50;;;;;;;5.58;62.57;102541.63;2072024;28;20211;-61
2023/02/12 04:48:52;;;;;;;25.00;18.23;;;;;;;5.57;62.35;102551.84;2072470;28;20189;-60
2023/02/12 04:49:53;;;;;;;26.70;18.73;;;;;;;5.65;62.11;102544.59;2072501;28;20210;-60
2023/02/12 04:50:53;;;;;;;24.97;17.83;;;;;;;5.65;62.29;102548.13;2072442;28;20180;-60
2023/02/12 04:51:54;;;;;;;28.27;18.57;;;;;;;5.63;61.98;102549.63;2071952;28;20219;-60
2023/02/12 04:52:54;;;;;;;25.27;18.10;;;;;;;5.68;61.81;102552.13;2071929;28;20283;-61
2023/02/12 04:53:55;;;;;;;27.47;18.13;;;;;;;5.69;61.84;102560.03;2072262;28;20716;-61
2023/02/12 04:54:55;;;;;;;22.30;17.67;;;;;;;5.73;62.29;102555.44;2072358;28;20529;-61
2023/02/12 04:55:55;;;;;;;25.17;18.37;;;;;;;5.75;61.96;102560.59;2071679;28;20212;-61
2023/02/12 04:56:56;;;;;;;24.90;18.37;;;;;;;5.38;61.78;102510.47;2072146;28;20236;-61
2023/02/12 04:57:56;;;;;;;24.90;18.40;;;;;;;5.58;62.14;102553.44;2072439;28;20200;-61
2023/02/12 04:58:57;;;;;;;25.80;19.20;;;;;;;5.62;62.18;102550.78;2072177;28;20181;-61
2023/02/12 04:59:57;;;;;;;24.37;18.07;;;;;;;5.53;62.39;102531.72;2072153;28;20571;-60
2023/02/12 05:00:58;;;;;;;23.87;17.90;;;;;;;4.97;61.89;102447.69;2072260;28;20196;-61
2023/02/12 05:01:59;;;;;;;26.60;18.50;;;;;;;5.72;62.50;102555.78;2072216;28;20644;-61
2023/02/12 05:02:59;;;;;;;24.37;18.70;;;;;;;5.68;61.65;102558.44;2071824;28;20200;-60
2023/02/12 05:04:00;;;;;;;25.60;18.13;;;;;;;5.70;61.87;102567.13;2072044;28;20200;-61
2023/02/12 05:05:02;;;;;;;26.88;18.75;;;;;;;5.13;62.11;102477.97;2072118;28;20178;-60
2023/02/12 05:06:04;;;;;;;28.88;19.67;;;;;;;5.55;61.92;102534.91;2071779;28;20177;-61
2023/02/12 05:07:05;;;;;;;25.25;18.77;;;;;;;5.71;61.55;102562.44;2072200;28;20588;-60
2023/02/12 05:08:05;;;;;;;26.20;19.10;;;;;;;5.65;62.67;102550.09;2072202;28;20181;-61
2023/02/12 05:09:06;;;;;;;25.67;19.13;;;;;;;5.69;62.43;102568.28;2072129;28;20200;-60